sensor_id;sensor_type;location;lat;lon;timestamp;P1;durP1;ratioP1;P2;durP2;ratioP2
39958;SDS011;25639;53.634;9.880;2023-05-13T00:01:01;11.73;;;5.85;;
39958;SDS011;25639;53.634;9.880;2023-05-13T00:03:26;13.55;;;6.40;;
39958;SDS011;25639;53.634;9.880;2023-05-13T00:05:52;12.00;;;6.03;;
39958;SDS011;25639;53.634;9.880;2023-05-13T00:08:18;13.88;;;6.45;;
39958;SDS011;25639;53.634;9.880;2023-05-13T00:10:44;9.50;;;6.30;;
39958;SDS011;25639;53.634;9.880;2023-05-13T00:13:09;10.98;;;6.25;;
39958;SDS011;25639;53.634;9.880;2023-05-13T00:15:34;12.55;;;5.88;;
39958;SDS011;25639;53.634;9.880;2023-05-13T00:17:59;11.02;;;6.43;;
39958;SDS011;25639;53.634;9.880;2023-05-13T00:20:25;13.55;;;6.40;;
39958;SDS011;25639;53.634;9.880;2023-05-13T00:22:50;12.70;;;7.10;;
39958;SDS011;25639;53.634;9.880;2023-05-13T00:25:16;12.13;;;6.85;;
39958;SDS011;25639;53.634;9.880;2023-05-13T00:27:41;11.07;;;6.60;;
39958;SDS011;25639;53.634;9.880;2023-05-13T00:30:06;9.60;;;6.43;;
39958;SDS011;25639;53.634;9.880;2023-05-13T00:32:32;13.55;;;6.60;;
39958;SDS011;25639;53.634;9.880;2023-05-13T00:34:57;12.98;;;7.47;;
39958;SDS011;25639;53.634;9.880;2023-05-13T00:37:23;9.57;;;6.70;;
39958;SDS011;25639;53.634;9.880;2023-05-13T00:39:48;18.27;;;6.63;;
39958;SDS011;25639;53.634;9.880;2023-05-13T00:42:13;14.07;;;5.82;;
39958;SDS011;25639;53.634;9.880;2023-05-13T00:44:39;12.88;;;6.85;;
39958;SDS011;25639;53.634;9.880;2023-05-13T00:47:04;10.68;;;6.10;;
39958;SDS011;25639;53.634;9.880;2023-05-13T00:49:31;12.40;;;6.32;;
39958;SDS011;25639;53.634;9.880;2023-05-13T00:51:57;19.58;;;7.15;;
39958;SDS011;25639;53.634;9.880;2023-05-13T00:54:22;13.98;;;6.53;;
39958;SDS011;25639;53.634;9.880;2023-05-13T00:56:48;16.20;;;7.47;;
39958;SDS011;25639;53.634;9.880;2023-05-13T00:59:18;12.95;;;7.32;;
39958;SDS011;25639;53.634;9.880;2023-05-13T01:01:45;11.70;;;7.03;;
39958;SDS011;25639;53.634;9.880;2023-05-13T01:04:22;10.75;;;6.70;;
39958;SDS011;25639;53.634;9.880;2023-05-13T01:07:03;12.00;;;7.07;;
39958;SDS011;25639;53.634;9.880;2023-05-13T01:12:15;11.98;;;6.43;;
39958;SDS011;25639;53.634;9.880;2023-05-13T01:14:53;12.10;;;6.07;;
39958;SDS011;25639;53.634;9.880;2023-05-13T01:17:29;13.32;;;6.60;;
39958;SDS011;25639;53.634;9.880;2023-05-13T01:19:59;14.82;;;6.93;;
39958;SDS011;25639;53.634;9.880;2023-05-13T01:22:26;14.60;;;7.20;;
39958;SDS011;25639;53.634;9.880;2023-05-13T01:24:51;12.32;;;7.47;;
39958;SDS011;25639;53.634;9.880;2023-05-13T01:27:17;10.90;;;6.35;;
39958;SDS011;25639;53.634;9.880;2023-05-13T01:29:42;10.25;;;6.25;;
39958;SDS011;25639;53.634;9.880;2023-05-13T01:32:09;15.40;;;6.95;;
39958;SDS011;25639;53.634;9.880;2023-05-13T01:34:35;11.10;;;6.28;;
39958;SDS011;25639;53.634;9.880;2023-05-13T01:37:03;12.25;;;6.85;;
39958;SDS011;25639;53.634;9.880;2023-05-13T01:39:29;11.25;;;6.97;;
39958;SDS011;25639;53.634;9.880;2023-05-13T01:41:55;12.07;;;6.43;;
39958;SDS011;25639;53.634;9.880;2023-05-13T01:44:21;12.98;;;7.20;;
39958;SDS011;25639;53.634;9.880;2023-05-13T01:46:53;12.68;;;7.20;;
39958;SDS011;25639;53.634;9.880;2023-05-13T01:49:18;22.30;;;7.15;;
39958;SDS011;25639;53.634;9.880;2023-05-13T01:51:43;9.32;;;6.47;;
39958;SDS011;25639;53.634;9.880;2023-05-13T01:54:08;15.55;;;7.25;;
39958;SDS011;25639;53.634;9.880;2023-05-13T01:56:34;15.70;;;7.50;;
39958;SDS011;25639;53.634;9.880;2023-05-13T01:59:00;11.27;;;7.10;;
39958;SDS011;25639;53.634;9.880;2023-05-13T02:01:25;12.27;;;7.38;;
39958;SDS011;25639;53.634;9.880;2023-05-13T02:03:50;10.65;;;7.10;;
39958;SDS011;25639;53.634;9.880;2023-05-13T02:06:16;12.57;;;6.90;;
39958;SDS011;25639;53.634;9.880;2023-05-13T02:08:41;11.40;;;7.05;;
39958;SDS011;25639;53.634;9.880;2023-05-13T02:11:07;13.20;;;6.82;;
39958;SDS011;25639;53.634;9.880;2023-05-13T02:13:32;13.02;;;7.70;;
39958;SDS011;25639;53.634;9.880;2023-05-13T02:15:57;14.88;;;7.90;;
39958;SDS011;25639;53.634;9.880;2023-05-13T02:18:22;12.52;;;7.10;;
39958;SDS011;25639;53.634;9.880;2023-05-13T02:20:48;15.73;;;7.47;;
39958;SDS011;25639;53.634;9.880;2023-05-13T02:23:13;13.38;;;7.50;;
39958;SDS011;25639;53.634;9.880;2023-05-13T02:25:39;11.00;;;7.70;;
39958;SDS011;25639;53.634;9.880;2023-05-13T02:28:05;14.07;;;8.07;;
39958;SDS011;25639;53.634;9.880;2023-05-13T02:30:31;9.93;;;7.32;;
39958;SDS011;25639;53.634;9.880;2023-05-13T02:32:56;16.13;;;8.20;;
39958;SDS011;25639;53.634;9.880;2023-05-13T02:35:21;11.40;;;7.53;;
39958;SDS011;25639;53.634;9.880;2023-05-13T02:37:48;13.75;;;7.03;;
39958;SDS011;25639;53.634;9.880;2023-05-13T02:40:23;15.75;;;8.07;;
39958;SDS011;25639;53.634;9.880;2023-05-13T02:42:48;11.38;;;7.40;;
39958;SDS011;25639;53.634;9.880;2023-05-13T02:45:14;11.15;;;7.35;;
39958;SDS011;25639;53.634;9.880;2023-05-13T02:47:39;14.60;;;7.65;;
39958;SDS011;25639;53.634;9.880;2023-05-13T02:50:05;10.80;;;7.80;;
39958;SDS011;25639;53.634;9.880;2023-05-13T02:52:32;13.00;;;7.82;;
39958;SDS011;25639;53.634;9.880;2023-05-13T02:54:59;15.93;;;7.75;;
39958;SDS011;25639;53.634;9.880;2023-05-13T02:57:25;11.38;;;7.95;;
39958;SDS011;25639;53.634;9.880;2023-05-13T02:59:51;14.57;;;8.88;;
39958;SDS011;25639;53.634;9.880;2023-05-13T03:02:16;15.93;;;8.82;;
39958;SDS011;25639;53.634;9.880;2023-05-13T03:04:41;13.38;;;8.75;;
39958;SDS011;25639;53.634;9.880;2023-05-13T03:07:06;14.93;;;8.07;;
39958;SDS011;25639;53.634;9.880;2023-05-13T03:09:32;17.67;;;8.57;;
39958;SDS011;25639;53.634;9.880;2023-05-13T03:11:59;13.07;;;8.48;;
39958;SDS011;25639;53.634;9.880;2023-05-13T03:14:24;14.90;;;8.15;;
39958;SDS011;25639;53.634;9.880;2023-05-13T03:16:50;11.32;;;7.18;;
39958;SDS011;25639;53.634;9.880;2023-05-13T03:19:15;13.02;;;8.20;;
39958;SDS011;25639;53.634;9.880;2023-05-13T03:21:40;14.23;;;9.02;;
39958;SDS011;25639;53.634;9.880;2023-05-13T03:24:06;19.50;;;9.80;;
39958;SDS011;25639;53.634;9.880;2023-05-13T03:26:31;14.70;;;9.05;;
39958;SDS011;25639;53.634;9.880;2023-05-13T03:28:56;15.98;;;9.43;;
39958;SDS011;25639;53.634;9.880;2023-05-13T03:31:22;21.35;;;10.63;;
39958;SDS011;25639;53.634;9.880;2023-05-13T03:33:47;21.17;;;11.05;;
39958;SDS011;25639;53.634;9.880;2023-05-13T03:36:13;24.42;;;12.18;;
39958;SDS011;25639;53.634;9.880;2023-05-13T03:38:38;18.58;;;12.48;;
39958;SDS011;25639;53.634;9.880;2023-05-13T03:41:03;24.77;;;13.45;;
39958;SDS011;25639;53.634;9.880;2023-05-13T03:43:29;22.33;;;12.60;;
39958;SDS011;25639;53.634;9.880;2023-05-13T03:45:54;20.65;;;13.35;;
39958;SDS011;25639;53.634;9.880;2023-05-13T03:48:19;18.63;;;12.48;;
39958;SDS011;25639;53.634;9.880;2023-05-13T03:50:44;22.65;;;12.82;;
39958;SDS011;25639;53.634;9.880;2023-05-13T03:53:10;19.95;;;11.70;;
39958;SDS011;25639;53.634;9.880;2023-05-13T03:55:36;21.38;;;11.50;;
39958;SDS011;25639;53.634;9.880;2023-05-13T03:58:09;23.17;;;12.48;;
39958;SDS011;25639;53.634;9.880;2023-05-13T04:00:38;20.83;;;11.80;;
39958;SDS011;25639;53.634;9.880;2023-05-13T04:03:04;21.83;;;12.20;;
39958;SDS011;25639;53.634;9.880;2023-05-13T04:05:29;20.83;;;11.93;;
39958;SDS011;25639;53.634;9.880;2023-05-13T04:07:54;19.80;;;12.70;;
39958;SDS011;25639;53.634;9.880;2023-05-13T04:10:20;19.45;;;12.65;;
39958;SDS011;25639;53.634;9.880;2023-05-13T04:12:45;20.35;;;12.68;;
39958;SDS011;25639;53.634;9.880;2023-05-13T04:15:10;21.13;;;12.57;;
39958;SDS011;25639;53.634;9.880;2023-05-13T04:17:35;17.75;;;12.07;;
39958;SDS011;25639;53.634;9.880;2023-05-13T04:20:01;19.27;;;12.80;;
39958;SDS011;25639;53.634;9.880;2023-05-13T04:22:26;21.08;;;11.70;;
39958;SDS011;25639;53.634;9.880;2023-05-13T04:24:51;27.08;;;13.80;;
39958;SDS011;25639;53.634;9.880;2023-05-13T04:27:20;21.85;;;12.55;;
39958;SDS011;25639;53.634;9.880;2023-05-13T04:29:46;19.90;;;12.32;;
39958;SDS011;25639;53.634;9.880;2023-05-13T04:32:12;19.48;;;11.73;;
39958;SDS011;25639;53.634;9.880;2023-05-13T04:34:39;20.42;;;12.20;;
39958;SDS011;25639;53.634;9.880;2023-05-13T04:37:05;21.75;;;12.02;;
39958;SDS011;25639;53.634;9.880;2023-05-13T04:39:30;21.83;;;12.05;;
39958;SDS011;25639;53.634;9.880;2023-05-13T04:41:56;21.40;;;12.13;;
39958;SDS011;25639;53.634;9.880;2023-05-13T04:44:21;18.13;;;12.00;;
39958;SDS011;25639;53.634;9.880;2023-05-13T04:46:46;20.33;;;13.30;;
39958;SDS011;25639;53.634;9.880;2023-05-13T04:49:11;17.40;;;13.10;;
39958;SDS011;25639;53.634;9.880;2023-05-13T04:51:37;21.20;;;13.07;;
39958;SDS011;25639;53.634;9.880;2023-05-13T04:54:02;23.38;;;13.50;;
39958;SDS011;25639;53.634;9.880;2023-05-13T04:56:27;20.77;;;13.38;;
39958;SDS011;25639;53.634;9.880;2023-05-13T04:58:52;19.90;;;12.43;;
39958;SDS011;25639;53.634;9.880;2023-05-13T05:01:18;21.88;;;12.13;;
39958;SDS011;25639;53.634;9.880;2023-05-13T05:03:43;20.40;;;12.82;;
39958;SDS011;25639;53.634;9.880;2023-05-13T05:06:08;17.85;;;11.75;;
39958;SDS011;25639;53.634;9.880;2023-05-13T05:08:33;19.83;;;11.40;;
39958;SDS011;25639;53.634;9.880;2023-05-13T05:10:59;20.27;;;11.55;;
39958;SDS011;25639;53.634;9.880;2023-05-13T05:13:25;23.33;;;11.95;;
39958;SDS011;25639;53.634;9.880;2023-05-13T05:15:50;16.67;;;10.60;;
39958;SDS011;25639;53.634;9.880;2023-05-13T05:18:16;14.05;;;9.27;;
39958;SDS011;25639;53.634;9.880;2023-05-13T05:20:41;20.08;;;10.05;;
39958;SDS011;25639;53.634;9.880;2023-05-13T05:23:06;13.70;;;9.45;;
39958;SDS011;25639;53.634;9.880;2023-05-13T05:25:32;16.50;;;9.75;;
39958;SDS011;25639;53.634;9.880;2023-05-13T05:27:58;19.23;;;9.65;;
39958;SDS011;25639;53.634;9.880;2023-05-13T05:30:23;13.93;;;8.70;;
39958;SDS011;25639;53.634;9.880;2023-05-13T05:32:49;16.55;;;9.50;;
39958;SDS011;25639;53.634;9.880;2023-05-13T05:35:14;18.48;;;9.98;;
39958;SDS011;25639;53.634;9.880;2023-05-13T05:37:40;18.08;;;9.90;;
39958;SDS011;25639;53.634;9.880;2023-05-13T05:40:06;15.35;;;9.15;;
39958;SDS011;25639;53.634;9.880;2023-05-13T05:42:32;14.52;;;9.05;;
39958;SDS011;25639;53.634;9.880;2023-05-13T05:44:57;16.45;;;8.88;;
39958;SDS011;25639;53.634;9.880;2023-05-13T05:47:22;17.27;;;7.97;;
39958;SDS011;25639;53.634;9.880;2023-05-13T05:49:47;17.00;;;7.85;;
39958;SDS011;25639;53.634;9.880;2023-05-13T05:52:13;14.82;;;8.07;;
39958;SDS011;25639;53.634;9.880;2023-05-13T05:54:38;18.30;;;8.48;;
39958;SDS011;25639;53.634;9.880;2023-05-13T05:57:03;18.80;;;8.05;;
39958;SDS011;25639;53.634;9.880;2023-05-13T05:59:29;14.20;;;8.27;;
39958;SDS011;25639;53.634;9.880;2023-05-13T06:01:54;13.23;;;7.35;;
39958;SDS011;25639;53.634;9.880;2023-05-13T06:04:19;11.43;;;7.30;;
39958;SDS011;25639;53.634;9.880;2023-05-13T06:06:44;16.85;;;7.95;;
39958;SDS011;25639;53.634;9.880;2023-05-13T06:09:10;17.42;;;7.32;;
39958;SDS011;25639;53.634;9.880;2023-05-13T06:11:35;17.35;;;7.25;;
39958;SDS011;25639;53.634;9.880;2023-05-13T06:14:00;15.25;;;7.85;;
39958;SDS011;25639;53.634;9.880;2023-05-13T06:16:26;14.85;;;7.40;;
39958;SDS011;25639;53.634;9.880;2023-05-13T06:18:51;11.65;;;7.03;;
39958;SDS011;25639;53.634;9.880;2023-05-13T06:21:16;8.25;;;5.60;;
39958;SDS011;25639;53.634;9.880;2023-05-13T06:23:41;12.55;;;6.78;;
39958;SDS011;25639;53.634;9.880;2023-05-13T06:26:07;13.90;;;7.05;;
39958;SDS011;25639;53.634;9.880;2023-05-13T06:28:32;12.65;;;6.82;;
39958;SDS011;25639;53.634;9.880;2023-05-13T06:30:57;14.00;;;7.05;;
39958;SDS011;25639;53.634;9.880;2023-05-13T06:33:22;8.10;;;5.95;;
39958;SDS011;25639;53.634;9.880;2023-05-13T06:35:48;15.80;;;6.32;;
39958;SDS011;25639;53.634;9.880;2023-05-13T06:38:14;11.68;;;6.68;;
39958;SDS011;25639;53.634;9.880;2023-05-13T06:40:42;13.73;;;5.82;;
39958;SDS011;25639;53.634;9.880;2023-05-13T06:43:08;16.70;;;6.72;;
39958;SDS011;25639;53.634;9.880;2023-05-13T06:45:33;11.45;;;6.40;;
39958;SDS011;25639;53.634;9.880;2023-05-13T06:47:58;12.75;;;6.13;;
39958;SDS011;25639;53.634;9.880;2023-05-13T06:50:23;10.52;;;6.07;;
39958;SDS011;25639;53.634;9.880;2023-05-13T06:52:49;9.23;;;5.90;;
39958;SDS011;25639;53.634;9.880;2023-05-13T06:55:14;15.93;;;5.90;;
39958;SDS011;25639;53.634;9.880;2023-05-13T06:57:40;11.10;;;5.72;;
39958;SDS011;25639;53.634;9.880;2023-05-13T07:00:09;12.27;;;5.72;;
39958;SDS011;25639;53.634;9.880;2023-05-13T07:02:34;12.90;;;5.63;;
39958;SDS011;25639;53.634;9.880;2023-05-13T07:05:00;7.90;;;5.35;;
39958;SDS011;25639;53.634;9.880;2023-05-13T07:07:25;12.93;;;5.63;;
39958;SDS011;25639;53.634;9.880;2023-05-13T07:09:50;12.90;;;5.95;;
39958;SDS011;25639;53.634;9.880;2023-05-13T07:12:16;11.65;;;5.35;;
39958;SDS011;25639;53.634;9.880;2023-05-13T07:14:41;11.18;;;5.53;;
39958;SDS011;25639;53.634;9.880;2023-05-13T07:17:09;12.27;;;4.68;;
39958;SDS011;25639;53.634;9.880;2023-05-13T07:19:34;13.43;;;5.38;;
39958;SDS011;25639;53.634;9.880;2023-05-13T07:21:59;11.30;;;5.25;;
39958;SDS011;25639;53.634;9.880;2023-05-13T07:24:25;10.27;;;4.80;;
39958;SDS011;25639;53.634;9.880;2023-05-13T07:26:50;8.93;;;5.00;;
39958;SDS011;25639;53.634;9.880;2023-05-13T07:29:16;11.77;;;5.15;;
39958;SDS011;25639;53.634;9.880;2023-05-13T07:31:41;10.25;;;5.28;;
39958;SDS011;25639;53.634;9.880;2023-05-13T07:34:06;9.45;;;5.35;;
39958;SDS011;25639;53.634;9.880;2023-05-13T07:36:32;11.98;;;5.07;;
39958;SDS011;25639;53.634;9.880;2023-05-13T07:38:57;10.63;;;5.40;;
39958;SDS011;25639;53.634;9.880;2023-05-13T07:41:22;9.85;;;5.35;;
39958;SDS011;25639;53.634;9.880;2023-05-13T07:43:48;9.38;;;4.95;;
39958;SDS011;25639;53.634;9.880;2023-05-13T07:46:13;10.52;;;4.68;;
39958;SDS011;25639;53.634;9.880;2023-05-13T07:48:38;11.60;;;4.82;;
39958;SDS011;25639;53.634;9.880;2023-05-13T07:51:03;10.60;;;4.60;;
39958;SDS011;25639;53.634;9.880;2023-05-13T07:53:29;11.00;;;4.78;;
39958;SDS011;25639;53.634;9.880;2023-05-13T07:55:54;9.32;;;4.00;;
39958;SDS011;25639;53.634;9.880;2023-05-13T07:58:20;15.65;;;4.53;;
39958;SDS011;25639;53.634;9.880;2023-05-13T08:00:45;10.38;;;4.65;;
39958;SDS011;25639;53.634;9.880;2023-05-13T08:03:10;7.57;;;4.22;;
39958;SDS011;25639;53.634;9.880;2023-05-13T08:05:36;10.30;;;4.22;;
39958;SDS011;25639;53.634;9.880;2023-05-13T08:08:01;10.73;;;4.40;;
39958;SDS011;25639;53.634;9.880;2023-05-13T08:10:28;20.05;;;4.95;;
39958;SDS011;25639;53.634;9.880;2023-05-13T08:12:54;12.77;;;5.05;;
39958;SDS011;25639;53.634;9.880;2023-05-13T08:15:21;9.07;;;4.28;;
39958;SDS011;25639;53.634;9.880;2023-05-13T08:17:47;9.32;;;4.40;;
39958;SDS011;25639;53.634;9.880;2023-05-13T08:20:13;12.20;;;4.70;;
39958;SDS011;25639;53.634;9.880;2023-05-13T08:22:39;6.88;;;4.10;;
39958;SDS011;25639;53.634;9.880;2023-05-13T08:25:04;9.73;;;4.78;;
39958;SDS011;25639;53.634;9.880;2023-05-13T08:27:30;9.25;;;4.53;;
39958;SDS011;25639;53.634;9.880;2023-05-13T08:29:55;8.23;;;4.13;;
39958;SDS011;25639;53.634;9.880;2023-05-13T08:32:20;8.77;;;4.07;;
39958;SDS011;25639;53.634;9.880;2023-05-13T08:34:46;7.20;;;4.20;;
39958;SDS011;25639;53.634;9.880;2023-05-13T08:37:11;7.68;;;3.70;;
39958;SDS011;25639;53.634;9.880;2023-05-13T08:39:36;7.55;;;3.53;;
39958;SDS011;25639;53.634;9.880;2023-05-13T08:42:02;13.05;;;4.68;;
39958;SDS011;25639;53.634;9.880;2023-05-13T08:44:28;14.02;;;4.10;;
39958;SDS011;25639;53.634;9.880;2023-05-13T08:47:42;10.98;;;3.88;;
39958;SDS011;25639;53.634;9.880;2023-05-13T08:50:03;10.00;;;3.85;;
39958;SDS011;25639;53.634;9.880;2023-05-13T08:52:30;12.05;;;4.05;;
39958;SDS011;25639;53.634;9.880;2023-05-13T08:54:55;11.20;;;3.75;;
39958;SDS011;25639;53.634;9.880;2023-05-13T08:57:23;10.90;;;3.60;;
39958;SDS011;25639;53.634;9.880;2023-05-13T08:59:48;10.32;;;4.15;;
39958;SDS011;25639;53.634;9.880;2023-05-13T09:02:14;7.18;;;3.50;;
39958;SDS011;25639;53.634;9.880;2023-05-13T09:04:39;6.13;;;3.67;;
39958;SDS011;25639;53.634;9.880;2023-05-13T09:07:06;14.88;;;4.07;;
39958;SDS011;25639;53.634;9.880;2023-05-13T09:09:31;18.27;;;4.32;;
39958;SDS011;25639;53.634;9.880;2023-05-13T09:11:57;6.82;;;3.47;;
39958;SDS011;25639;53.634;9.880;2023-05-13T09:14:23;9.68;;;3.00;;
39958;SDS011;25639;53.634;9.880;2023-05-13T09:16:54;9.88;;;3.72;;
39958;SDS011;25639;53.634;9.880;2023-05-13T09:19:22;8.40;;;3.50;;
39958;SDS011;25639;53.634;9.880;2023-05-13T09:21:48;9.23;;;3.78;;
39958;SDS011;25639;53.634;9.880;2023-05-13T09:24:14;7.95;;;3.92;;
39958;SDS011;25639;53.634;9.880;2023-05-13T09:26:44;7.63;;;3.47;;
39958;SDS011;25639;53.634;9.880;2023-05-13T09:31:39;9.63;;;3.88;;
39958;SDS011;25639;53.634;9.880;2023-05-13T09:34:05;7.45;;;3.88;;
39958;SDS011;25639;53.634;9.880;2023-05-13T09:36:30;12.60;;;3.78;;
39958;SDS011;25639;53.634;9.880;2023-05-13T09:38:57;5.65;;;3.05;;
39958;SDS011;25639;53.634;9.880;2023-05-13T09:41:23;7.95;;;3.25;;
39958;SDS011;25639;53.634;9.880;2023-05-13T09:43:50;7.50;;;3.42;;
39958;SDS011;25639;53.634;9.880;2023-05-13T09:46:16;7.22;;;3.33;;
39958;SDS011;25639;53.634;9.880;2023-05-13T09:48:42;7.80;;;3.33;;
39958;SDS011;25639;53.634;9.880;2023-05-13T09:51:08;12.48;;;3.50;;
39958;SDS011;25639;53.634;9.880;2023-05-13T09:53:33;8.18;;;3.42;;
39958;SDS011;25639;53.634;9.880;2023-05-13T09:55:58;9.07;;;3.58;;
39958;SDS011;25639;53.634;9.880;2023-05-13T09:58:25;10.40;;;3.20;;
39958;SDS011;25639;53.634;9.880;2023-05-13T10:00:52;10.15;;;3.70;;
39958;SDS011;25639;53.634;9.880;2023-05-13T10:03:18;9.63;;;3.03;;
39958;SDS011;25639;53.634;9.880;2023-05-13T10:05:44;7.05;;;3.10;;
39958;SDS011;25639;53.634;9.880;2023-05-13T10:08:10;4.88;;;3.20;;
39958;SDS011;25639;53.634;9.880;2023-05-13T10:10:37;9.45;;;3.10;;
39958;SDS011;25639;53.634;9.880;2023-05-13T10:13:14;9.63;;;3.45;;
39958;SDS011;25639;53.634;9.880;2023-05-13T10:18:16;9.50;;;3.40;;
39958;SDS011;25639;53.634;9.880;2023-05-13T10:20:43;9.43;;;3.40;;
39958;SDS011;25639;53.634;9.880;2023-05-13T10:23:09;9.73;;;3.58;;
39958;SDS011;25639;53.634;9.880;2023-05-13T10:25:36;8.02;;;3.40;;
39958;SDS011;25639;53.634;9.880;2023-05-13T10:28:02;7.55;;;3.70;;
39958;SDS011;25639;53.634;9.880;2023-05-13T10:30:29;10.25;;;3.63;;
39958;SDS011;25639;53.634;9.880;2023-05-13T10:32:56;8.88;;;3.45;;
39958;SDS011;25639;53.634;9.880;2023-05-13T10:35:26;7.25;;;3.40;;
39958;SDS011;25639;53.634;9.880;2023-05-13T10:37:55;6.93;;;2.90;;
39958;SDS011;25639;53.634;9.880;2023-05-13T10:43:29;7.70;;;3.60;;
39958;SDS011;25639;53.634;9.880;2023-05-13T10:45:55;4.80;;;2.60;;
39958;SDS011;25639;53.634;9.880;2023-05-13T10:48:22;8.77;;;3.40;;
39958;SDS011;25639;53.634;9.880;2023-05-13T10:50:55;7.65;;;3.78;;
39958;SDS011;25639;53.634;9.880;2023-05-13T10:53:29;6.10;;;3.55;;
39958;SDS011;25639;53.634;9.880;2023-05-13T10:55:57;5.55;;;3.15;;
39958;SDS011;25639;53.634;9.880;2023-05-13T10:58:30;6.97;;;2.95;;
39958;SDS011;25639;53.634;9.880;2023-05-13T11:01:58;10.10;;;3.60;;
39958;SDS011;25639;53.634;9.880;2023-05-13T11:03:54;7.10;;;3.53;;
39958;SDS011;25639;53.634;9.880;2023-05-13T11:06:36;9.32;;;3.08;;
39958;SDS011;25639;53.634;9.880;2023-05-13T11:09:07;12.05;;;4.85;;
39958;SDS011;25639;53.634;9.880;2023-05-13T11:11:36;11.47;;;6.47;;
39958;SDS011;25639;53.634;9.880;2023-05-13T11:14:15;5.32;;;3.20;;
39958;SDS011;25639;53.634;9.880;2023-05-13T11:16:51;7.20;;;3.20;;
39958;SDS011;25639;53.634;9.880;2023-05-13T11:19:20;5.47;;;3.30;;
39958;SDS011;25639;53.634;9.880;2023-05-13T11:21:51;4.57;;;3.10;;
39958;SDS011;25639;53.634;9.880;2023-05-13T11:24:20;12.90;;;3.30;;
39958;SDS011;25639;53.634;9.880;2023-05-13T11:26:53;11.70;;;3.42;;
39958;SDS011;25639;53.634;9.880;2023-05-13T11:31:54;6.85;;;2.80;;
39958;SDS011;25639;53.634;9.880;2023-05-13T11:34:22;8.85;;;3.38;;
39958;SDS011;25639;53.634;9.880;2023-05-13T11:36:49;16.35;;;3.35;;
39958;SDS011;25639;53.634;9.880;2023-05-13T11:39:16;5.63;;;3.38;;
39958;SDS011;25639;53.634;9.880;2023-05-13T11:41:44;8.10;;;3.40;;
39958;SDS011;25639;53.634;9.880;2023-05-13T11:44:12;12.98;;;5.90;;
39958;SDS011;25639;53.634;9.880;2023-05-13T11:46:47;7.00;;;4.30;;
39958;SDS011;25639;53.634;9.880;2023-05-13T11:49:28;7.18;;;3.67;;
39958;SDS011;25639;53.634;9.880;2023-05-13T11:52:04;9.05;;;3.88;;
39958;SDS011;25639;53.634;9.880;2023-05-13T11:54:32;7.47;;;2.67;;
39958;SDS011;25639;53.634;9.880;2023-05-13T11:57:04;9.77;;;3.28;;
39958;SDS011;25639;53.634;9.880;2023-05-13T12:00:03;8.38;;;3.35;;
39958;SDS011;25639;53.634;9.880;2023-05-13T12:02:31;11.55;;;3.63;;
39958;SDS011;25639;53.634;9.880;2023-05-13T12:05:03;7.30;;;3.30;;
39958;SDS011;25639;53.634;9.880;2023-05-13T12:07:29;7.53;;;3.70;;
39958;SDS011;25639;53.634;9.880;2023-05-13T12:09:56;7.28;;;3.55;;
39958;SDS011;25639;53.634;9.880;2023-05-13T12:12:24;6.72;;;3.35;;
39958;SDS011;25639;53.634;9.880;2023-05-13T12:14:51;8.02;;;3.67;;
39958;SDS011;25639;53.634;9.880;2023-05-13T12:17:18;8.48;;;2.95;;
39958;SDS011;25639;53.634;9.880;2023-05-13T12:22:34;6.80;;;2.80;;
39958;SDS011;25639;53.634;9.880;2023-05-13T12:25:31;4.25;;;3.05;;
39958;SDS011;25639;53.634;9.880;2023-05-13T12:33:16;9.75;;;3.03;;
39958;SDS011;25639;53.634;9.880;2023-05-13T12:35:44;7.95;;;3.22;;
39958;SDS011;25639;53.634;9.880;2023-05-13T12:38:13;7.22;;;3.17;;
39958;SDS011;25639;53.634;9.880;2023-05-13T12:40:47;8.23;;;2.72;;
39958;SDS011;25639;53.634;9.880;2023-05-13T12:43:13;6.25;;;2.70;;
39958;SDS011;25639;53.634;9.880;2023-05-13T12:45:41;8.25;;;2.88;;
39958;SDS011;25639;53.634;9.880;2023-05-13T12:48:07;9.35;;;2.97;;
39958;SDS011;25639;53.634;9.880;2023-05-13T12:50:33;18.70;;;3.45;;
39958;SDS011;25639;53.634;9.880;2023-05-13T12:52:59;6.28;;;2.50;;
39958;SDS011;25639;53.634;9.880;2023-05-13T12:55:24;7.15;;;3.17;;
39958;SDS011;25639;53.634;9.880;2023-05-13T12:58:00;8.00;;;3.28;;
39958;SDS011;25639;53.634;9.880;2023-05-13T13:02:53;5.47;;;2.60;;
39958;SDS011;25639;53.634;9.880;2023-05-13T13:05:19;3.70;;;2.42;;
39958;SDS011;25639;53.634;9.880;2023-05-13T13:07:45;5.20;;;2.70;;
39958;SDS011;25639;53.634;9.880;2023-05-13T13:10:11;4.10;;;2.42;;
39958;SDS011;25639;53.634;9.880;2023-05-13T13:12:36;10.20;;;2.42;;
39958;SDS011;25639;53.634;9.880;2023-05-13T13:15:02;12.45;;;2.90;;
39958;SDS011;25639;53.634;9.880;2023-05-13T13:17:28;5.30;;;2.45;;
39958;SDS011;25639;53.634;9.880;2023-05-13T13:19:53;5.82;;;2.72;;
39958;SDS011;25639;53.634;9.880;2023-05-13T13:22:19;6.82;;;2.40;;
39958;SDS011;25639;53.634;9.880;2023-05-13T13:24:44;6.57;;;2.67;;
39958;SDS011;25639;53.634;9.880;2023-05-13T13:27:10;8.05;;;2.42;;
39958;SDS011;25639;53.634;9.880;2023-05-13T13:29:35;6.20;;;2.50;;
39958;SDS011;25639;53.634;9.880;2023-05-13T13:32:00;5.45;;;2.47;;
39958;SDS011;25639;53.634;9.880;2023-05-13T13:34:26;6.40;;;2.67;;
39958;SDS011;25639;53.634;9.880;2023-05-13T13:36:51;5.88;;;2.47;;
39958;SDS011;25639;53.634;9.880;2023-05-13T13:39:16;3.65;;;2.65;;
39958;SDS011;25639;53.634;9.880;2023-05-13T13:41:41;6.75;;;2.90;;
39958;SDS011;25639;53.634;9.880;2023-05-13T13:44:07;7.05;;;2.65;;
39958;SDS011;25639;53.634;9.880;2023-05-13T13:46:32;6.80;;;2.95;;
39958;SDS011;25639;53.634;9.880;2023-05-13T13:48:57;6.10;;;2.90;;
39958;SDS011;25639;53.634;9.880;2023-05-13T13:51:23;7.20;;;2.97;;
39958;SDS011;25639;53.634;9.880;2023-05-13T13:53:48;7.65;;;2.58;;
39958;SDS011;25639;53.634;9.880;2023-05-13T13:56:14;4.70;;;2.70;;
39958;SDS011;25639;53.634;9.880;2023-05-13T13:58:39;7.50;;;2.83;;
39958;SDS011;25639;53.634;9.880;2023-05-13T14:01:05;7.35;;;2.55;;
39958;SDS011;25639;53.634;9.880;2023-05-13T14:03:30;4.13;;;2.38;;
39958;SDS011;25639;53.634;9.880;2023-05-13T14:05:55;6.47;;;2.75;;
39958;SDS011;25639;53.634;9.880;2023-05-13T14:08:21;4.70;;;2.40;;
39958;SDS011;25639;53.634;9.880;2023-05-13T14:10:46;5.30;;;2.17;;
39958;SDS011;25639;53.634;9.880;2023-05-13T14:13:11;7.07;;;2.38;;
39958;SDS011;25639;53.634;9.880;2023-05-13T14:15:37;5.13;;;2.25;;
39958;SDS011;25639;53.634;9.880;2023-05-13T14:18:03;4.68;;;2.78;;
39958;SDS011;25639;53.634;9.880;2023-05-13T14:20:31;6.93;;;2.60;;
39958;SDS011;25639;53.634;9.880;2023-05-13T14:22:57;7.05;;;3.00;;
39958;SDS011;25639;53.634;9.880;2023-05-13T14:25:23;6.97;;;2.30;;
39958;SDS011;25639;53.634;9.880;2023-05-13T14:27:48;6.15;;;2.50;;
39958;SDS011;25639;53.634;9.880;2023-05-13T14:30:13;10.05;;;2.50;;
39958;SDS011;25639;53.634;9.880;2023-05-13T14:32:39;10.95;;;2.90;;
39958;SDS011;25639;53.634;9.880;2023-05-13T14:35:08;3.80;;;2.47;;
39958;SDS011;25639;53.634;9.880;2023-05-13T14:37:34;5.45;;;2.45;;
39958;SDS011;25639;53.634;9.880;2023-05-13T14:39:59;7.68;;;2.83;;
39958;SDS011;25639;53.634;9.880;2023-05-13T14:42:24;5.15;;;2.53;;
39958;SDS011;25639;53.634;9.880;2023-05-13T14:44:50;5.30;;;2.53;;
39958;SDS011;25639;53.634;9.880;2023-05-13T14:47:15;6.70;;;2.38;;
39958;SDS011;25639;53.634;9.880;2023-05-13T14:49:40;6.90;;;2.75;;
39958;SDS011;25639;53.634;9.880;2023-05-13T14:52:06;12.05;;;3.08;;
39958;SDS011;25639;53.634;9.880;2023-05-13T14:54:32;7.47;;;2.63;;
39958;SDS011;25639;53.634;9.880;2023-05-13T14:56:59;15.40;;;2.50;;
39958;SDS011;25639;53.634;9.880;2023-05-13T14:59:26;4.82;;;2.50;;